Terminal Aerodrome Forecast
Issued by NWS

Home | Current Version | Previous Version | Text Only | Print | Product List | Glossary On
Versions: 1 2 3 4 5 6 7 8 9 10 11 12 13 14 15 16 17 18 19 20 21 22
117
FTUS41 KGYX 281728
TAFRKD
TAF
KRKD 281728Z 2818/2918 11005KT P6SM OVC006
     FM282300 VRB03KT 3SM -SHRA BR OVC005
     FM291000 35004KT 5SM BR OVC015
     FM291500 35009KT P6SM BKN035
      AMD LTD TO CLD VIS AND WIND=

USA.gov is the U.S. government's official web portal to all federal, state and local government web resources and services.